Time;durP1;ratioP1;P1;durP2;ratioP2;P2;SDS_P1;SDS_P2;PMS_P1;PMS_P2;Temp;Humidity;BMP_temperature;BMP_pressure;BME280_temperature;BME280_humidity;BME280_pressure;Samples;Min_cycle;Max_cycle;Signal;HPM_P1;HPM_P2
2023/08/03 00:01:27;;;;;;;1.23;0.50;;;16.80;99.90;;;;;;5093736;28;20127;-47
2023/08/03 00:03:53;;;;;;;1.40;0.57;;;16.80;99.90;;;;;;5092543;28;20054;-48
2023/08/03 00:06:19;;;;;;;3.47;0.60;;;16.80;99.90;;;;;;5093803;28;20040;-47
2023/08/03 00:08:44;;;;;;;2.17;0.73;;;16.80;99.90;;;;;;5092735;28;20048;-48
2023/08/03 00:11:10;;;;;;;1.48;0.50;;;16.80;99.90;;;;;;5093897;28;20540;-48
2023/08/03 00:13:36;;;;;;;2.17;0.70;;;16.80;99.90;;;;;;5093910;28;20566;-47
2023/08/03 00:16:01;;;;;;;2.30;0.73;;;16.80;99.90;;;;;;5093966;28;20426;-47
2023/08/03 00:18:27;;;;;;;1.88;1.05;;;16.80;99.90;;;;;;5093685;28;20056;-48
2023/08/03 00:20:53;;;;;;;2.25;0.60;;;16.80;99.90;;;;;;5093665;28;20131;-48
2023/08/03 00:23:19;;;;;;;1.95;0.50;;;16.80;99.90;;;;;;5094090;28;20037;-49
2023/08/03 00:25:44;;;;;;;2.42;0.65;;;16.80;99.90;;;;;;5093621;28;20436;-48
2023/08/03 00:28:10;;;;;;;1.75;0.43;;;16.70;99.90;;;;;;5093698;28;20158;-48
2023/08/03 00:30:35;;;;;;;2.28;0.43;;;16.70;99.90;;;;;;5093581;28;20087;-49
2023/08/03 00:33:01;;;;;;;1.30;0.40;;;16.70;99.90;;;;;;5093511;28;20501;-51
2023/08/03 00:35:27;;;;;;;1.25;0.40;;;16.70;99.90;;;;;;5093469;28;20091;-49
2023/08/03 00:37:53;;;;;;;0.80;0.43;;;16.70;99.90;;;;;;5093237;28;20144;-49
2023/08/03 00:40:20;;;;;;;2.33;0.50;;;16.70;99.90;;;;;;5093932;28;20067;-48
2023/08/03 00:42:46;;;;;;;2.00;0.40;;;16.70;99.90;;;;;;5097571;28;20410;-48
2023/08/03 00:45:12;;;;;;;2.05;0.73;;;16.70;99.90;;;;;;5096363;28;20048;-48
2023/08/03 00:47:39;;;;;;;1.98;0.50;;;16.70;99.90;;;;;;5097493;28;20048;-48
2023/08/03 00:50:05;;;;;;;0.70;0.30;;;16.70;99.90;;;;;;5097314;28;20043;-49
2023/08/03 00:52:34;;;;;;;0.80;0.30;;;16.70;99.90;;;;;;5097398;28;20134;-49
2023/08/03 00:55:00;;;;;;;2.90;0.80;;;16.80;99.90;;;;;;5097301;28;20048;-49
2023/08/03 00:57:30;;;;;;;2.80;0.35;;;16.80;99.90;;;;;;5097270;28;20054;-48
2023/08/03 00:59:56;;;;;;;2.35;0.40;;;16.80;99.90;;;;;;5097141;28;20055;-50
2023/08/03 01:02:22;;;;;;;1.17;0.40;;;16.80;99.90;;;;;;5097064;28;20202;-49
2023/08/03 01:04:49;;;;;;;1.73;0.68;;;16.80;99.90;;;;;;5097006;28;20126;-49
2023/08/03 01:07:14;;;;;;;;;;;16.80;99.90;;;;;;5097439;28;20040;-47
2023/08/03 01:09:40;;;;;;;2.28;0.40;;;16.80;99.90;;;;;;5097036;28;19920;-46
2023/08/03 01:12:06;;;;;;;2.38;0.50;;;16.80;99.90;;;;;;5096005;28;20043;-50
2023/08/03 01:14:32;;;;;;;1.38;0.43;;;16.80;99.90;;;;;;5096815;28;20055;-46
2023/08/03 01:16:57;;;;;;;2.65;0.47;;;16.80;99.90;;;;;;5095839;28;20044;-51
2023/08/03 01:19:23;;;;;;;1.05;0.50;;;16.80;99.90;;;;;;5096919;28;20052;-50
2023/08/03 01:21:50;;;;;;;0.75;0.28;;;16.80;99.90;;;;;;5097281;28;20044;-46
2023/08/03 01:24:16;;;;;;;1.85;0.40;;;16.80;99.90;;;;;;5095821;28;20048;-47
2023/08/03 01:26:42;;;;;;;1.15;0.30;;;16.80;99.90;;;;;;5096756;28;20059;-50
2023/08/03 01:29:08;;;;;;;1.77;0.60;;;16.80;99.90;;;;;;5096573;28;20047;-49
2023/08/03 01:31:34;;;;;;;0.70;0.30;;;16.80;99.90;;;;;;5096360;28;20123;-47
2023/08/03 01:34:01;;;;;;;1.17;0.50;;;16.80;99.90;;;;;;5095339;28;20044;-47
2023/08/03 01:36:26;;;;;;;1.17;0.55;;;16.80;99.90;;;;;;5097010;28;20487;-49
2023/08/03 01:39:08;;;;;;;1.05;0.30;;;16.80;99.90;;;;;;5096242;28;20054;-49
2023/08/03 01:41:35;;;;;;;0.50;0.30;;;16.80;99.90;;;;;;5096573;28;20051;-50
2023/08/03 01:44:23;;;;;;;0.63;0.35;;;16.80;99.90;;;;;;5096214;28;20044;-46
2023/08/03 01:46:50;;;;;;;0.80;0.30;;;16.80;99.90;;;;;;5096346;28;20040;-45
2023/08/03 01:49:17;;;;;;;2.00;0.32;;;16.80;99.90;;;;;;5095396;28;20052;-46
2023/08/03 01:51:42;;;;;;;4.22;0.40;;;16.80;99.90;;;;;;5094825;28;20040;-46
2023/08/03 01:54:09;;;;;;;1.02;0.30;;;16.80;99.90;;;;;;5095475;28;20105;-46
2023/08/03 01:56:35;;;;;;;1.30;0.30;;;16.80;99.90;;;;;;5095136;28;20094;-46
2023/08/03 01:59:01;;;;;;;2.95;0.45;;;16.80;99.90;;;;;;5095978;28;20051;-46
2023/08/03 02:01:26;;;;;;;1.15;0.30;;;16.80;99.90;;;;;;5096054;28;20036;-46
2023/08/03 02:03:52;;;;;;;1.27;0.30;;;16.80;99.90;;;;;;5095828;28;20054;-45
2023/08/03 02:06:17;;;;;;;2.13;0.60;;;16.80;99.90;;;;;;5094756;28;20051;-46
2023/08/03 02:08:43;;;;;;;0.90;0.40;;;16.80;99.90;;;;;;5096143;28;20556;-47
2023/08/03 02:11:09;;;;;;;4.63;0.50;;;16.80;99.90;;;;;;5094878;28;20040;-46
2023/08/03 02:13:34;;;;;;;2.60;0.57;;;16.80;99.90;;;;;;5095655;28;20582;-45
2023/08/03 02:16:08;;;;;;;2.05;0.50;;;16.80;99.90;;;;;;5095999;28;20270;-47
2023/08/03 02:18:34;;;;;;;1.88;0.57;;;16.70;99.90;;;;;;5096081;28;20091;-46
2023/08/03 02:21:00;;;;;;;1.00;0.47;;;16.80;99.90;;;;;;5095824;28;20098;-45
2023/08/03 02:23:26;;;;;;;2.08;0.30;;;16.70;99.90;;;;;;5095798;28;20437;-47
2023/08/03 02:25:51;;;;;;;1.52;0.50;;;16.70;99.90;;;;;;5095618;28;20043;-46
2023/08/03 02:28:17;;;;;;;1.23;0.40;;;16.70;99.90;;;;;;5094266;28;20127;-45
2023/08/03 02:30:43;;;;;;;1.42;0.50;;;16.70;99.90;;;;;;5095522;28;20088;-45
2023/08/03 02:33:09;;;;;;;0.63;0.30;;;16.70;99.90;;;;;;5095330;28;20116;-46
2023/08/03 02:35:37;;;;;;;0.85;0.40;;;16.70;99.90;;;;;;5095474;28;20050;-45
2023/08/03 02:38:03;;;;;;;0.95;0.40;;;16.70;99.90;;;;;;5095340;28;20051;-47
2023/08/03 02:40:29;;;;;;;;;;;16.70;99.90;;;;;;5095705;28;20101;-47
2023/08/03 02:42:55;;;;;;;1.13;0.43;;;16.70;99.90;;;;;;5093978;28;20305;-46
2023/08/03 02:45:20;;;;;;;0.85;0.60;;;16.70;99.90;;;;;;5094896;28;20040;-46
2023/08/03 02:47:46;;;;;;;0.90;0.32;;;16.70;99.90;;;;;;5095180;28;20043;-46
2023/08/03 02:50:12;;;;;;;0.52;0.40;;;16.70;99.90;;;;;;5095144;28;20065;-46
2023/08/03 02:52:38;;;;;;;1.80;0.50;;;16.70;99.90;;;;;;5094875;28;20106;-46
2023/08/03 02:55:04;;;;;;;1.48;0.50;;;16.70;99.90;;;;;;5094818;28;20051;-46
2023/08/03 02:57:29;;;;;;;1.50;0.50;;;16.70;99.90;;;;;;5094785;28;20047;-47
2023/08/03 02:59:55;;;;;;;3.00;0.40;;;16.70;99.90;;;;;;5094009;28;20130;-46
2023/08/03 03:02:21;;;;;;;0.80;0.40;;;16.70;99.90;;;;;;5094882;28;20510;-47
2023/08/03 03:04:46;;;;;;;1.67;0.50;;;16.70;99.90;;;;;;5093812;28;20044;-47
2023/08/03 03:07:12;;;;;;;1.58;0.50;;;16.70;99.90;;;;;;5093700;28;20108;-46
2023/08/03 03:09:38;;;;;;;0.45;0.30;;;16.70;99.90;;;;;;5094613;28;20048;-46
2023/08/03 03:12:03;;;;;;;1.38;0.50;;;16.70;99.90;;;;;;5094527;28;20048;-46
2023/08/03 03:14:29;;;;;;;2.10;0.60;;;16.70;99.90;;;;;;5094918;28;20067;-46
2023/08/03 03:16:55;;;;;;;2.05;0.40;;;16.70;99.90;;;;;;5094539;28;20126;-47
2023/08/03 03:19:20;;;;;;;1.65;0.50;;;16.70;99.90;;;;;;5094367;28;20067;-46
2023/08/03 03:21:46;;;;;;;1.70;0.47;;;16.70;99.90;;;;;;5094544;28;20054;-46
2023/08/03 03:24:12;;;;;;;0.90;0.40;;;16.70;99.90;;;;;;5094495;28;20073;-46
2023/08/03 03:26:37;;;;;;;1.13;0.50;;;16.70;99.90;;;;;;5094121;28;20079;-47
2023/08/03 03:29:03;;;;;;;2.05;0.38;;;16.70;99.90;;;;;;5094408;28;20043;-47
2023/08/03 03:31:28;;;;;;;1.65;0.60;;;16.70;99.90;;;;;;5094490;28;20098;-46
2023/08/03 03:33:54;;;;;;;1.17;0.30;;;16.70;99.90;;;;;;5094183;28;20509;-46
2023/08/03 03:36:20;;;;;;;1.55;0.30;;;16.70;99.90;;;;;;5093070;28;20487;-47
2023/08/03 03:38:45;;;;;;;1.17;0.50;;;16.70;99.90;;;;;;5093071;28;20048;-46
2023/08/03 03:41:11;;;;;;;0.95;0.50;;;16.70;99.90;;;;;;5094105;28;20051;-46
2023/08/03 03:43:37;;;;;;;1.30;0.43;;;16.70;99.90;;;;;;5094469;28;20134;-47
2023/08/03 03:46:02;;;;;;;1.88;0.50;;;16.70;99.90;;;;;;5093299;28;20052;-48
2023/08/03 03:48:28;;;;;;;0.70;0.50;;;16.70;99.90;;;;;;5094006;28;20040;-46
2023/08/03 03:50:54;;;;;;;3.53;0.60;;;16.70;99.90;;;;;;5094060;28;20090;-47
2023/08/03 03:53:20;;;;;;;0.90;0.55;;;16.70;99.90;;;;;;5094063;28;20090;-47
2023/08/03 03:55:45;;;;;;;1.15;0.75;;;16.70;99.90;;;;;;5093868;28;20083;-47
2023/08/03 03:58:11;;;;;;;1.67;0.70;;;16.70;99.90;;;;;;5092816;28;20394;-46
2023/08/03 04:00:40;;;;;;;1.52;0.52;;;16.70;99.90;;;;;;5093978;28;20048;-46
2023/08/03 04:03:09;;;;;;;2.15;0.70;;;16.70;99.90;;;;;;5093905;28;20363;-47
2023/08/03 04:05:36;;;;;;;1.50;0.80;;;16.70;99.90;;;;;;5092734;28;20050;-47
2023/08/03 04:08:01;;;;;;;;;;;16.70;99.90;;;;;;5094309;28;20066;-46
2023/08/03 04:10:28;;;;;;;1.85;0.70;;;16.80;99.90;;;;;;5093627;28;20383;-46
2023/08/03 04:12:54;;;;;;;1.70;0.80;;;16.70;99.90;;;;;;5093772;28;20040;-46
2023/08/03 04:15:19;;;;;;;1.35;0.60;;;16.70;99.90;;;;;;5094674;28;20390;-47
2023/08/03 04:17:46;;;;;;;1.83;0.80;;;16.70;99.90;;;;;;5100397;28;20044;-47
2023/08/03 04:20:12;;;;;;;1.95;0.75;;;16.70;99.90;;;;;;5099245;28;20052;-47
2023/08/03 04:22:38;;;;;;;2.35;0.95;;;16.70;99.90;;;;;;5100322;28;20075;-47
2023/08/03 04:25:04;;;;;;;1.95;0.90;;;16.70;99.90;;;;;;5099156;28;20075;-47
2023/08/03 04:27:30;;;;;;;1.55;0.75;;;16.70;99.90;;;;;;5100497;28;20101;-47
2023/08/03 04:29:55;;;;;;;2.33;1.05;;;16.70;99.90;;;;;;5100347;28;20044;-46
2023/08/03 04:32:21;;;;;;;2.40;0.98;;;16.70;99.90;;;;;;5100121;28;20126;-49
2023/08/03 04:34:47;;;;;;;2.90;0.95;;;16.70;99.90;;;;;;5100175;28;20189;-49
2023/08/03 04:37:12;;;;;;;3.58;1.00;;;16.70;99.90;;;;;;5100326;28;20051;-49
2023/08/03 04:39:38;;;;;;;2.88;1.10;;;16.70;99.90;;;;;;5100211;28;20043;-48
2023/08/03 04:42:04;;;;;;;3.10;1.20;;;16.70;99.90;;;;;;5099301;28;20100;-48
2023/08/03 04:44:29;;;;;;;3.05;1.15;;;16.70;99.90;;;;;;5100266;28;20085;-48
2023/08/03 04:46:55;;;;;;;2.72;1.30;;;16.80;99.90;;;;;;5100195;28;20048;-49
2023/08/03 04:49:22;;;;;;;2.60;1.27;;;16.70;99.90;;;;;;5082645;28;20436;-51
2023/08/03 04:51:49;;;;;;;2.92;1.38;;;16.70;99.90;;;;;;5099091;28;20313;-49
2023/08/03 04:54:15;;;;;;;3.88;1.30;;;16.80;99.90;;;;;;5099894;28;20059;-49
2023/08/03 04:56:41;;;;;;;3.55;1.35;;;16.80;99.90;;;;;;5100128;28;20044;-49
2023/08/03 04:59:06;;;;;;;3.63;1.45;;;16.80;99.90;;;;;;5100122;28;20136;-49
2023/08/03 05:01:32;;;;;;;4.03;1.48;;;16.80;99.90;;;;;;5100054;28;20048;-50
2023/08/03 05:04:00;;;;;;;5.20;1.60;;;16.80;99.90;;;;;;5100120;28;20044;-50
2023/08/03 05:06:26;;;;;;;3.13;1.40;;;16.80;99.90;;;;;;5099827;28;20083;-51
2023/08/03 05:08:52;;;;;;;4.78;1.80;;;16.80;99.90;;;;;;5099789;28;20043;-49
2023/08/03 05:11:17;;;;;;;4.40;1.70;;;16.90;99.90;;;;;;5099970;28;20047;-52
2023/08/03 05:13:43;;;;;;;4.47;1.88;;;16.80;99.90;;;;;;5100157;28;20043;-51
2023/08/03 05:16:09;;;;;;;4.28;1.77;;;16.90;99.90;;;;;;5099953;28;20475;-48
2023/08/03 05:18:35;;;;;;;5.70;1.90;;;16.80;99.90;;;;;;5099851;28;20451;-48
2023/08/03 05:21:00;;;;;;;6.53;2.47;;;16.90;99.90;;;;;;5099876;28;20052;-48
2023/08/03 05:23:26;;;;;;;3.88;1.80;;;16.80;99.90;;;;;;5098418;28;20403;-49
2023/08/03 05:25:58;;;;;;;5.43;2.25;;;16.80;99.90;;;;;;5099927;28;20059;-48
2023/08/03 05:28:25;;;;;;;2.95;1.25;;;16.80;99.90;;;;;;5096131;28;20051;-50
2023/08/03 05:30:51;;;;;;;3.58;1.20;;;16.90;99.90;;;;;;5096676;28;20055;-50
2023/08/03 05:33:17;;;;;;;2.20;0.90;;;16.80;99.90;;;;;;5096566;28;20048;-48
2023/08/03 05:35:44;;;;;;;1.85;0.82;;;16.80;99.90;;;;;;5096509;28;20048;-48
2023/08/03 05:38:10;;;;;;;2.20;0.82;;;16.80;99.90;;;;;;5096452;28;20491;-48
2023/08/03 05:40:39;;;;;;;3.40;1.25;;;16.80;99.90;;;;;;5096515;28;20119;-49
2023/08/03 05:43:10;;;;;;;3.83;1.60;;;16.80;99.90;;;;;;5096550;28;20045;-48
2023/08/03 05:45:43;;;;;;;3.50;1.67;;;16.70;99.90;;;;;;5096640;28;20091;-48
2023/08/03 05:48:14;;;;;;;4.25;1.60;;;16.70;99.90;;;;;;5096229;28;20403;-49
2023/08/03 05:50:42;;;;;;;4.18;1.60;;;16.70;99.90;;;;;;5096173;28;20054;-49
2023/08/03 05:53:09;;;;;;;2.78;1.40;;;16.80;99.90;;;;;;5095017;28;20039;-48
2023/08/03 05:55:35;;;;;;;2.95;1.25;;;16.80;99.90;;;;;;5096053;28;20482;-50
2023/08/03 05:58:01;;;;;;;3.25;1.55;;;16.80;99.90;;;;;;5096160;28;20097;-48
2023/08/03 06:00:28;;;;;;;5.18;1.73;;;16.80;99.90;;;;;;5095924;28;20105;-48
2023/08/03 06:02:58;;;;;;;3.58;1.73;;;16.80;99.90;;;;;;5095874;28;20460;-48
2023/08/03 06:05:46;;;;;;;3.67;1.73;;;16.80;99.90;;;;;;5095508;28;20429;-48
2023/08/03 06:08:18;;;;;;;4.80;1.40;;;16.80;99.90;;;;;;5095851;28;20079;-48
2023/08/03 06:10:46;;;;;;;4.43;1.92;;;16.90;99.90;;;;;;5095877;28;20089;-49
2023/08/03 06:13:15;;;;;;;4.72;1.95;;;17.00;99.90;;;;;;5095711;28;20087;-50
2023/08/03 06:15:41;;;;;;;3.35;1.73;;;17.20;99.90;;;;;;5095657;28;20048;-49
2023/08/03 06:18:14;;;;;;;3.28;1.38;;;17.40;99.90;;;;;;5095824;28;20045;-48
2023/08/03 06:20:42;;;;;;;3.28;1.67;;;17.40;99.90;;;;;;5094955;28;20487;-50
2023/08/03 06:23:18;;;;;;;4.30;1.50;;;17.40;99.90;;;;;;5095845;28;20119;-51
2023/08/03 06:25:46;;;;;;;3.45;1.58;;;17.50;99.90;;;;;;5095793;28;20044;-51
2023/08/03 06:28:15;;;;;;;3.17;1.60;;;17.50;99.90;;;;;;5094165;28;20399;-53
2023/08/03 06:30:40;;;;;;;3.38;1.50;;;17.50;99.90;;;;;;5095512;28;20048;-56
2023/08/03 06:33:11;;;;;;;3.35;1.58;;;17.50;99.90;;;;;;5094119;28;20127;-56
2023/08/03 06:35:44;;;;;;;3.17;1.30;;;17.50;99.90;;;;;;5095728;28;20048;-50
2023/08/03 06:38:16;;;;;;;3.15;1.35;;;17.50;99.90;;;;;;5095071;28;20058;-55
2023/08/03 06:40:46;;;;;;;3.55;1.05;;;17.50;99.90;;;;;;5095180;28;20123;-53
2023/08/03 06:43:13;;;;;;;2.63;1.08;;;17.50;99.90;;;;;;5095367;28;20044;-55
2023/08/03 06:45:40;;;;;;;2.30;1.10;;;17.50;99.90;;;;;;5095256;28;20075;-55
2023/08/03 06:48:07;;;;;;;3.05;1.20;;;17.50;99.90;;;;;;5093845;28;20044;-56
2023/08/03 06:50:33;;;;;;;2.60;1.17;;;17.50;99.90;;;;;;5095079;28;20055;-49
2023/08/03 06:52:59;;;;;;;2.15;1.10;;;17.50;99.90;;;;;;5094842;28;20391;-56
2023/08/03 06:55:25;;;;;;;;;;;17.40;99.90;;;;;;5095204;28;20122;-56
2023/08/03 06:57:52;;;;;;;1.90;1.00;;;17.40;99.90;;;;;;5095011;28;19920;-56
2023/08/03 07:00:17;;;;;;;2.28;0.90;;;17.40;99.90;;;;;;5094917;28;20093;-54
2023/08/03 07:02:45;;;;;;;2.70;1.33;;;17.40;99.90;;;;;;5094792;28;20048;-56
2023/08/03 07:05:11;;;;;;;3.55;1.23;;;17.30;99.90;;;;;;5094741;28;20048;-56
2023/08/03 07:07:36;;;;;;;4.13;1.60;;;17.40;99.90;;;;;;5093491;28;20376;-56
2023/08/03 07:10:02;;;;;;;2.60;1.27;;;17.40;99.90;;;;;;5094715;28;20048;-56
2023/08/03 07:12:28;;;;;;;3.22;1.35;;;17.60;99.90;;;;;;5093525;28;20452;-56
2023/08/03 07:14:55;;;;;;;2.47;1.08;;;17.70;99.90;;;;;;5093813;28;20131;-56
2023/08/03 07:17:21;;;;;;;2.55;0.82;;;17.90;99.90;;;;;;5094520;28;20093;-56
2023/08/03 07:19:51;;;;;;;2.50;0.75;;;18.00;99.90;;;;;;5094811;28;20051;-54
2023/08/03 07:22:24;;;;;;;2.10;0.60;;;18.00;99.90;;;;;;5094231;28;20392;-53
2023/08/03 07:24:50;;;;;;;2.45;0.70;;;17.90;99.90;;;;;;5094561;28;20086;-54
2023/08/03 07:27:16;;;;;;;1.27;0.50;;;18.00;99.90;;;;;;5094233;28;20399;-52
2023/08/03 07:29:42;;;;;;;1.63;0.60;;;18.00;99.90;;;;;;5094465;28;20044;-54
2023/08/03 07:32:09;;;;;;;1.73;0.50;;;17.90;99.90;;;;;;5094388;28;20498;-54
2023/08/03 07:34:34;;;;;;;;;;;17.80;99.90;;;;;;5094675;28;20048;-53
2023/08/03 07:37:01;;;;;;;1.00;0.40;;;17.80;99.90;;;;;;5094188;28;19927;-53
2023/08/03 07:39:27;;;;;;;;;;;17.70;99.90;;;;;;5094695;28;20402;-53
2023/08/03 07:41:52;;;;;;;1.33;0.40;;;17.70;99.90;;;;;;5094277;28;19924;-53
2023/08/03 07:44:18;;;;;;;0.77;0.45;;;17.70;99.90;;;;;;5094150;28;20040;-52
2023/08/03 07:46:45;;;;;;;2.17;0.40;;;17.70;99.90;;;;;;5094014;28;20043;-53
2023/08/03 07:49:11;;;;;;;0.50;0.30;;;17.80;99.90;;;;;;5094025;28;20055;-52
2023/08/03 07:51:37;;;;;;;1.25;0.73;;;17.90;99.90;;;;;;5093211;28;20043;-49
2023/08/03 07:54:02;;;;;;;1.45;0.60;;;18.00;99.90;;;;;;5093046;28;20062;-49
2023/08/03 07:56:28;;;;;;;1.80;0.30;;;18.00;99.90;;;;;;5093789;28;20052;-50
2023/08/03 07:58:54;;;;;;;0.80;0.40;;;18.00;99.90;;;;;;5093928;28;20077;-55
2023/08/03 08:01:20;;;;;;;2.47;0.50;;;18.00;99.90;;;;;;5093985;28;20036;-51
2023/08/03 08:03:47;;;;;;;1.65;0.50;;;18.10;99.90;;;;;;5094042;28;20499;-53
2023/08/03 08:06:14;;;;;;;1.42;0.60;;;18.10;99.90;;;;;;5093663;28;20529;-51
2023/08/03 08:08:41;;;;;;;2.70;0.43;;;18.20;99.90;;;;;;5093937;28;20395;-51
2023/08/03 08:11:07;;;;;;;1.35;0.43;;;18.10;99.90;;;;;;5093583;28;20495;-51
2023/08/03 08:13:33;;;;;;;1.77;0.50;;;18.20;99.90;;;;;;5093824;28;20105;-52
2023/08/03 08:16:02;;;;;;;1.85;0.60;;;18.20;99.90;;;;;;5093006;28;20044;-53
2023/08/03 08:18:28;;;;;;;1.40;0.50;;;18.30;99.90;;;;;;5093518;28;20044;-53
2023/08/03 08:20:54;;;;;;;;;;;18.30;99.90;;;;;;5094078;28;20529;-50
2023/08/03 08:23:20;;;;;;;1.20;0.50;;;18.30;99.90;;;;;;5093743;28;19920;-50
2023/08/03 08:25:46;;;;;;;0.95;0.55;;;18.40;99.90;;;;;;5093553;28;20055;-49
2023/08/03 08:28:11;;;;;;;1.75;0.70;;;18.40;99.90;;;;;;5093731;28;20051;-48
2023/08/03 08:30:37;;;;;;;2.47;0.50;;;18.40;99.90;;;;;;5093618;28;20513;-51
2023/08/03 08:33:03;;;;;;;1.10;0.50;;;18.50;99.90;;;;;;5093354;28;20083;-50
2023/08/03 08:35:29;;;;;;;1.65;0.50;;;18.50;99.90;;;;;;5093382;28;20051;-49
2023/08/03 08:37:54;;;;;;;1.77;0.40;;;18.60;99.90;;;;;;5093451;28;20123;-50
2023/08/03 08:40:20;;;;;;;2.05;0.50;;;18.50;99.90;;;;;;5093488;28;20091;-48
2023/08/03 08:42:52;;;;;;;2.80;0.50;;;18.60;99.90;;;;;;5093412;28;20032;-49
2023/08/03 08:45:19;;;;;;;2.05;1.25;;;18.60;99.90;;;;;;5093573;28;20051;-47
2023/08/03 08:47:45;;;;;;;1.92;0.60;;;18.70;99.90;;;;;;5093506;28;20052;-47
2023/08/03 08:50:11;;;;;;;2.00;0.45;;;18.70;99.90;;;;;;5092568;28;20044;-48
2023/08/03 08:52:41;;;;;;;3.22;0.95;;;18.80;99.90;;;;;;5093404;28;20388;-49
2023/08/03 08:55:14;;;;;;;1.77;0.52;;;18.80;99.90;;;;;;5093717;28;20135;-47
2023/08/03 08:57:40;;;;;;;2.00;0.50;;;18.80;99.90;;;;;;5093365;28;20048;-48
2023/08/03 09:00:07;;;;;;;2.05;0.45;;;18.80;99.90;;;;;;5093181;28;20119;-48
2023/08/03 09:02:33;;;;;;;3.28;0.60;;;18.80;99.90;;;;;;5076218;28;20055;-48
2023/08/03 09:05:33;;;;;;;1.48;0.60;;;18.80;99.90;;;;;;5097211;28;20048;-48
2023/08/03 09:07:59;;;;;;;3.90;0.60;;;18.70;99.90;;;;;;5086113;28;20499;-48
2023/08/03 09:10:25;;;;;;;1.88;0.50;;;18.70;99.90;;;;;;5097052;28;20106;-49
2023/08/03 09:12:51;;;;;;;3.67;0.40;;;18.70;99.90;;;;;;5096748;28;20467;-49
2023/08/03 09:15:16;;;;;;;18.20;13.98;;;18.80;99.90;;;;;;5097050;28;20079;-54
2023/08/03 09:17:47;;;;;;;4.75;1.10;;;18.80;99.90;;;;;;5096662;28;20058;-49
2023/08/03 09:20:28;;;;;;;2.38;0.75;;;18.80;99.90;;;;;;5095675;28;20091;-49
2023/08/03 09:22:54;;;;;;;4.25;1.10;;;18.80;99.90;;;;;;5096708;28;20127;-51
2023/08/03 09:25:19;;;;;;;2.70;0.90;;;18.70;99.90;;;;;;5095352;28;20119;-52
2023/08/03 09:27:50;;;;;;;3.03;1.15;;;18.70;99.90;;;;;;5096471;28;20047;-51
2023/08/03 09:30:16;;;;;;;3.05;0.93;;;18.60;99.90;;;;;;5096695;28;20040;-52
2023/08/03 09:32:43;;;;;;;5.15;1.30;;;18.60;99.90;;;;;;5095514;28;20087;-50
2023/08/03 09:35:22;;;;;;;;;;;18.60;99.90;;;;;;5097121;28;20086;-53
2023/08/03 09:37:52;;;;;;;6.10;1.20;;;18.70;99.90;;;;;;5096481;28;19927;-53
2023/08/03 09:40:20;;;;;;;6.22;1.42;;;18.80;99.90;;;;;;5095435;28;20040;-50
2023/08/03 09:42:49;;;;;;;3.33;1.20;;;18.80;99.90;;;;;;5096876;28;20101;-51
2023/08/03 09:45:15;;;;;;;6.15;1.15;;;18.90;99.90;;;;;;5096410;28;20044;-54
2023/08/03 09:47:41;;;;;;;;;;;18.90;99.90;;;;;;5095759;28;20471;-54
2023/08/03 09:50:08;;;;;;;4.03;1.00;;;19.00;99.90;;;;;;5096249;28;19927;-54
2023/08/03 09:52:43;;;;;;;3.88;0.82;;;18.90;99.90;;;;;;5096102;28;20048;-55
2023/08/03 09:55:20;;;;;;;3.75;1.05;;;18.90;99.90;;;;;;5096433;28;20113;-56
2023/08/03 09:58:08;;;;;;;4.05;1.40;;;18.90;99.90;;;;;;5096239;28;20091;-55
2023/08/03 10:00:33;;;;;;;;;;;19.00;99.90;;;;;;5096464;28;20372;-53
2023/08/03 10:03:09;;;;;;;2.75;1.10;;;19.00;99.90;;;;;;5095895;28;19942;-53
2023/08/03 10:05:51;;;;;;;4.03;1.20;;;18.90;99.90;;;;;;5094914;28;20536;-53
2023/08/03 10:08:40;;;;;;;3.42;1.05;;;18.90;99.90;;;;;;5096146;28;20102;-53
2023/08/03 10:11:09;;;;;;;4.78;1.10;;;18.80;99.90;;;;;;5094880;28;20094;-52
2023/08/03 10:13:41;;;;;;;3.88;1.20;;;18.80;99.90;;;;;;5095134;28;20514;-52
2023/08/03 10:16:07;;;;;;;4.68;1.42;;;19.00;99.90;;;;;;5096201;28;20048;-54
2023/08/03 10:18:35;;;;;;;4.07;1.10;;;19.00;99.90;;;;;;5095894;28;20067;-53
2023/08/03 10:21:03;;;;;;;3.72;1.35;;;19.20;99.90;;;;;;5096110;28;20048;-54
2023/08/03 10:23:29;;;;;;;4.43;1.17;;;19.20;99.90;;;;;;5095748;28;20052;-51
2023/08/03 10:26:00;;;;;;;6.25;1.42;;;19.20;99.90;;;;;;5095388;28;20487;-53
2023/08/03 10:28:38;;;;;;;8.40;1.63;;;19.20;99.90;;;;;;5095987;28;20097;-53
2023/08/03 10:31:11;;;;;;;4.63;1.55;;;19.10;99.90;;;;;;5095464;28;20044;-55
2023/08/03 10:33:51;;;;;;;4.55;1.75;;;19.10;99.90;;;;;;5095562;28;20079;-53
2023/08/03 10:36:26;;;;;;;6.40;1.50;;;19.00;99.90;;;;;;5095133;28;20052;-53
2023/08/03 10:38:56;;;;;;;5.07;1.60;;;19.00;99.90;;;;;;5095398;28;20402;-53
2023/08/03 10:41:26;;;;;;;5.70;1.73;;;19.00;99.90;;;;;;5077693;28;20048;-55
2023/08/03 10:44:24;;;;;;;5.70;1.17;;;19.00;99.90;;;;;;5095206;28;20048;-54
2023/08/03 10:46:55;;;;;;;3.72;1.02;;;19.10;99.90;;;;;;5068968;28;20380;-55
2023/08/03 10:49:20;;;;;;;5.75;1.27;;;19.20;99.90;;;;;;5095280;28;20047;-55
2023/08/03 10:51:51;;;;;;;4.70;1.10;;;19.40;99.90;;;;;;5095080;28;20550;-55
2023/08/03 10:54:18;;;;;;;7.00;1.13;;;19.50;99.90;;;;;;5095045;28;20036;-55
2023/08/03 10:57:06;;;;;;;5.43;1.30;;;19.50;99.90;;;;;;5095058;28;20459;-55
2023/08/03 10:59:48;;;;;;;2.53;0.80;;;19.50;99.90;;;;;;5094948;28;20039;-54
2023/08/03 11:02:33;;;;;;;2.35;0.70;;;19.50;99.90;;;;;;5095007;28;20050;-55
2023/08/03 11:05:02;;;;;;;2.92;1.00;;;19.60;99.90;;;;;;5094739;28;20051;-53
2023/08/03 11:07:41;;;;;;;3.05;1.05;;;19.70;99.90;;;;;;5094650;28;20514;-52
2023/08/03 11:10:11;;;;;;;1.95;0.82;;;19.80;99.90;;;;;;5094766;28;20044;-54
2023/08/03 11:12:38;;;;;;;3.00;0.57;;;19.80;99.90;;;;;;5094978;28;20044;-49
2023/08/03 11:15:08;;;;;;;3.05;0.80;;;19.80;99.90;;;;;;5094681;28;20083;-49
2023/08/03 11:17:36;;;;;;;1.58;0.80;;;19.80;99.90;;;;;;5094663;28;20513;-49
2023/08/03 11:20:04;;;;;;;3.55;0.65;;;19.90;99.90;;;;;;5093183;28;20052;-48
2023/08/03 11:22:31;;;;;;;2.28;0.70;;;20.00;99.90;;;;;;5094349;28;20479;-50
2023/08/03 11:25:00;;;;;;;2.05;0.63;;;19.90;99.90;;;;;;5092716;28;20047;-48
2023/08/03 11:27:26;;;;;;;2.50;0.70;;;20.00;99.90;;;;;;5094312;28;20082;-50
2023/08/03 11:29:52;;;;;;;;;;;20.20;99.90;;;;;;5094779;28;20131;-48
2023/08/03 11:32:26;;;;;;;1.65;0.50;;;20.30;99.90;;;;;;5093250;28;20030;-51
2023/08/03 11:35:06;;;;;;;1.75;0.65;;;20.30;99.90;;;;;;5094247;28;20506;-54
2023/08/03 11:37:33;;;;;;;1.60;0.50;;;20.30;99.90;;;;;;5094727;28;20084;-54
2023/08/03 11:40:00;;;;;;;1.52;0.40;;;20.50;99.90;;;;;;5093349;28;20086;-48
2023/08/03 11:42:27;;;;;;;2.08;0.35;;;20.50;99.90;;;;;;5093177;28;20440;-49
2023/08/03 11:44:53;;;;;;;1.13;0.30;;;20.60;99.90;;;;;;5093968;28;20048;-52
2023/08/03 11:47:19;;;;;;;1.85;0.30;;;20.80;99.90;;;;;;5094166;28;20040;-48
2023/08/03 11:49:48;;;;;;;1.55;0.30;;;21.00;99.90;;;;;;5094146;28;20548;-55
2023/08/03 11:52:21;;;;;;;1.75;0.32;;;21.10;99.90;;;;;;5093954;28;20040;-49
2023/08/03 11:54:48;;;;;;;1.45;0.30;;;21.20;99.90;;;;;;5093961;28;20177;-48
2023/08/03 11:59:58;;;;;;;1.58;0.55;;;21.50;99.90;;;;;;5093767;28;20101;-53
2023/08/03 12:02:44;;;;;;;0.90;0.32;;;21.60;99.90;;;;;;5093942;28;20044;-52
2023/08/03 12:05:11;;;;;;;2.22;0.40;;;21.60;99.90;;;;;;5094131;28;20040;-52
2023/08/03 12:07:37;;;;;;;1.65;0.70;;;21.60;99.90;;;;;;5093826;28;20044;-54
2023/08/03 12:10:13;;;;;;;3.35;0.70;;;21.50;99.90;;;;;;5092627;28;20406;-51
2023/08/03 12:12:40;;;;;;;1.70;0.52;;;21.50;99.90;;;;;;5093374;28;20058;-53
2023/08/03 12:15:06;;;;;;;1.90;0.60;;;21.60;99.90;;;;;;5093805;28;20055;-53
2023/08/03 12:17:32;;;;;;;1.35;0.50;;;21.70;99.90;;;;;;5093718;28;20522;-56
2023/08/03 12:19:58;;;;;;;3.13;0.70;;;21.80;99.90;;;;;;5093468;28;20070;-54
2023/08/03 12:22:23;;;;;;;3.70;0.98;;;21.70;99.90;;;;;;5092354;28;20044;-50
2023/08/03 12:24:49;;;;;;;2.05;0.55;;;21.60;99.90;;;;;;5075743;28;20139;-54
2023/08/03 12:27:15;;;;;;;3.85;0.52;;;21.30;99.90;;;;;;5093709;28;20044;-54
2023/08/03 12:29:40;;;;;;;1.05;0.40;;;21.00;99.90;;;;;;5093637;28;20044;-53
2023/08/03 12:32:07;;;;;;;2.00;0.73;;;20.70;99.90;;;;;;5092822;28;20040;-53
2023/08/03 12:34:33;;;;;;;1.08;0.40;;;20.50;99.90;;;;;;5093499;28;20134;-49
2023/08/03 12:36:59;;;;;;;0.88;0.40;;;20.30;99.90;;;;;;5093891;28;20131;-52
2023/08/03 12:39:24;;;;;;;1.20;0.30;;;20.10;99.90;;;;;;5097421;28;20376;-51
2023/08/03 12:41:50;;;;;;;1.88;0.50;;;20.10;99.90;;;;;;5096571;28;20048;-50
2023/08/03 12:44:16;;;;;;;2.35;0.50;;;20.00;99.90;;;;;;5097565;28;20040;-54
2023/08/03 12:46:41;;;;;;;2.63;0.55;;;19.90;99.90;;;;;;5097554;28;20502;-56
2023/08/03 12:49:07;;;;;;;2.92;0.60;;;19.80;99.90;;;;;;5097344;28;20050;-56
2023/08/03 12:51:35;;;;;;;2.85;0.60;;;19.80;99.90;;;;;;5097371;28;20110;-53
2023/08/03 12:54:02;;;;;;;3.05;1.00;;;19.80;99.90;;;;;;5097368;28;20052;-56
2023/08/03 12:56:28;;;;;;;2.78;0.77;;;19.80;99.90;;;;;;5097341;28;20051;-53